createdAt,value
2018-09-26T00:01:47.518Z,99.90
2018-09-26T00:04:33.384Z,99.90
2018-09-26T00:07:02.298Z,99.90
2018-09-26T00:26:51.962Z,99.90
2018-09-26T00:29:20.505Z,99.90
2018-09-26T00:31:49.517Z,99.90
2018-09-26T00:34:18.011Z,99.90
2018-09-26T00:36:46.705Z,99.90
2018-09-26T00:39:15.422Z,99.90
2018-09-26T00:41:43.997Z,99.90
2018-09-26T00:44:13.125Z,99.90
2018-09-26T00:46:42.314Z,99.90
2018-09-26T00:49:11.016Z,99.90
2018-09-26T00:51:39.586Z,99.90
2018-09-26T00:54:08.070Z,99.90
2018-09-26T00:56:36.617Z,99.90
2018-09-26T00:59:05.222Z,99.90
2018-09-26T01:01:33.730Z,99.90
2018-09-26T01:04:02.148Z,99.90
2018-09-26T01:06:30.951Z,99.90
2018-09-26T01:08:59.458Z,99.90
2018-09-26T01:11:28.118Z,99.90
2018-09-26T01:13:56.919Z,99.90
2018-09-26T01:33:48.663Z,99.90
2018-09-26T01:36:17.549Z,99.90
2018-09-26T01:38:46.057Z,99.90
2018-09-26T01:41:14.531Z,99.90
2018-09-26T01:43:43.247Z,99.90
2018-09-26T01:46:12.932Z,99.90
2018-09-26T01:48:42.146Z,99.90
2018-09-26T01:51:10.746Z,99.90
2018-09-26T01:53:39.205Z,99.90
2018-09-26T01:56:07.733Z,99.90
2018-09-26T01:58:36.266Z,99.90
2018-09-26T02:01:04.729Z,99.90
2018-09-26T02:03:33.185Z,99.90
2018-09-26T02:06:02.376Z,99.90
2018-09-26T02:08:30.915Z,99.90
2018-09-26T02:10:59.425Z,99.90
2018-09-26T02:13:28.210Z,99.90
2018-09-26T02:15:56.649Z,99.90
2018-09-26T02:18:25.667Z,99.90
2018-09-26T02:38:15.446Z,99.90
2018-09-26T02:40:44.198Z,99.90
2018-09-26T02:43:12.826Z,99.90
2018-09-26T02:45:41.889Z,99.90
2018-09-26T02:48:12.465Z,99.90
2018-09-26T02:50:40.946Z,99.90
2018-09-26T02:53:11.260Z,99.90
2018-09-26T02:55:39.778Z,99.90
2018-09-26T03:15:29.856Z,99.90
2018-09-26T03:17:58.356Z,99.90
2018-09-26T03:20:26.793Z,99.90
2018-09-26T03:22:57.357Z,99.90
2018-09-26T03:25:25.891Z,99.90
2018-09-26T03:27:55.489Z,99.90
2018-09-26T03:47:45.042Z,99.90
2018-09-26T04:07:34.163Z,99.90
2018-09-26T04:10:03.500Z,99.90
2018-09-26T04:12:32.062Z,99.90
2018-09-26T04:15:00.554Z,99.90
2018-09-26T04:34:50.726Z,99.90
2018-09-26T04:37:19.211Z,99.90
2018-09-26T04:39:48.342Z,99.90
2018-09-26T04:42:17.719Z,99.90
2018-09-26T05:02:08.453Z,99.90
2018-09-26T05:04:37.091Z,99.90
2018-09-26T05:07:06.769Z,99.90
2018-09-26T05:09:35.403Z,99.90
2018-09-26T05:12:04.241Z,99.90
2018-09-26T05:31:55.973Z,99.90
2018-09-26T05:34:26.062Z,99.90
2018-09-26T05:36:55.502Z,99.90
2018-09-26T05:56:46.265Z,99.90
2018-09-26T05:59:14.693Z,99.90
2018-09-26T06:01:43.122Z,99.90
2018-09-26T06:21:33.398Z,99.90
2018-09-26T06:24:02.616Z,99.90
2018-09-26T06:43:53.793Z,99.90
2018-09-26T06:46:22.269Z,99.90
2018-09-26T06:48:50.973Z,99.90
2018-09-26T06:51:20.073Z,99.90
2018-09-26T06:53:49.420Z,99.90
2018-09-26T06:56:17.854Z,99.90
2018-09-26T06:58:46.660Z,99.90
2018-09-26T07:01:15.746Z,99.90
2018-09-26T07:03:44.223Z,99.90
2018-09-26T07:06:12.787Z,99.90
2018-09-26T07:08:41.340Z,99.90
2018-09-26T07:11:09.858Z,99.90
2018-09-26T07:13:39.267Z,99.90
2018-09-26T07:16:07.733Z,99.90
2018-09-26T07:18:36.168Z,99.90
2018-09-26T07:21:04.655Z,99.90
2018-09-26T07:23:34.523Z,99.90
2018-09-26T07:26:02.978Z,99.90
2018-09-26T07:28:31.436Z,99.90
2018-09-26T07:31:00.015Z,99.90
2018-09-26T07:33:28.639Z,99.90
2018-09-26T07:53:19.229Z,99.90
2018-09-26T07:55:48.516Z,99.90
2018-09-26T07:58:18.209Z,99.90
2018-09-26T08:00:47.012Z,99.90
2018-09-26T08:03:15.703Z,99.90
2018-09-26T08:05:44.776Z,99.90
2018-09-26T08:08:13.873Z,99.90
2018-09-26T08:28:04.052Z,99.90
2018-09-26T08:30:32.742Z,99.90
2018-09-26T08:33:01.894Z,99.90
2018-09-26T08:52:51.765Z,99.90
2018-09-26T08:55:20.293Z,99.90
2018-09-26T08:57:48.897Z,99.90
2018-09-26T09:17:38.805Z,99.90
2018-09-26T09:20:07.497Z,99.90
2018-09-26T09:22:36.876Z,99.90
2018-09-26T09:25:05.668Z,99.90
2018-09-26T09:27:34.192Z,99.90
2018-09-26T09:30:02.706Z,99.90
2018-09-26T09:49:52.452Z,99.90
2018-09-26T09:52:22.154Z,99.90
2018-09-26T09:54:50.756Z,99.90
2018-09-26T09:57:19.682Z,99.90
2018-09-26T09:59:49.094Z,99.90
2018-09-26T10:02:18.789Z,99.90
2018-09-26T10:04:49.107Z,99.90
2018-09-26T10:07:17.609Z,99.90
2018-09-26T10:09:46.247Z,99.90
2018-09-26T10:12:14.928Z,99.90
2018-09-26T10:14:43.466Z,99.90
2018-09-26T10:17:11.905Z,99.90
2018-09-26T10:19:40.807Z,99.90
2018-09-26T10:22:09.279Z,99.90
2018-09-26T10:24:37.824Z,99.90
2018-09-26T10:27:07.317Z,99.90
2018-09-26T10:29:35.814Z,99.90
2018-09-26T10:32:04.243Z,99.90
2018-09-26T10:34:32.752Z,99.90
2018-09-26T10:37:01.428Z,99.90
2018-09-26T10:39:29.901Z,99.90
2018-09-26T10:41:58.915Z,99.90
2018-09-26T10:44:28.129Z,99.90
2018-09-26T10:46:56.598Z,99.90
2018-09-26T10:49:25.454Z,99.90
2018-09-26T10:51:55.388Z,99.90
2018-09-26T10:54:23.843Z,99.90
2018-09-26T10:56:53.127Z,99.90
2018-09-26T10:59:21.555Z,99.90
2018-09-26T11:01:50.048Z,99.90
2018-09-26T11:04:18.623Z,99.90
2018-09-26T11:06:47.791Z,99.90
2018-09-26T11:09:16.323Z,99.90
2018-09-26T11:11:45.109Z,99.90
2018-09-26T11:31:34.801Z,99.90
2018-09-26T11:34:03.676Z,99.90
2018-09-26T11:36:32.260Z,99.90
2018-09-26T11:56:21.983Z,99.90
2018-09-26T11:58:50.633Z,99.90
2018-09-26T12:01:20.473Z,99.90
2018-09-26T12:03:49.335Z,99.90
2018-09-26T12:06:17.781Z,99.90
2018-09-26T12:08:46.487Z,99.90
2018-09-26T12:11:15.261Z,99.90
2018-09-26T12:13:43.780Z,99.90
2018-09-26T12:33:33.257Z,99.90
2018-09-26T12:36:02.092Z,99.90
2018-09-26T12:38:31.411Z,99.90
2018-09-26T12:41:00.072Z,99.90
2018-09-26T12:43:28.541Z,99.90
2018-09-26T12:45:57.106Z,99.90
2018-09-26T12:48:26.806Z,99.90
2018-09-26T12:50:55.182Z,99.90
2018-09-26T12:53:24.477Z,99.90
2018-09-26T12:55:53.956Z,99.90
2018-09-26T12:58:22.486Z,99.90
2018-09-26T13:18:13.712Z,99.90
2018-09-26T13:38:03.168Z,99.90
2018-09-26T13:40:31.806Z,99.90
2018-09-26T13:43:00.553Z,99.90
2018-09-26T13:45:29.022Z,99.90
2018-09-26T13:47:59.278Z,99.90
2018-09-26T13:50:27.730Z,99.90
2018-09-26T13:52:56.293Z,99.90
2018-09-26T13:55:25.139Z,99.90
2018-09-26T13:57:53.636Z,99.90
2018-09-26T14:00:22.179Z,99.90
2018-09-26T14:02:50.833Z,97.60
2018-09-26T14:05:19.462Z,92.90
2018-09-26T14:07:48.554Z,86.80
2018-09-26T14:10:17.126Z,86.90
2018-09-26T14:12:46.417Z,85.60
2018-09-26T14:15:15.512Z,78.60
2018-09-26T14:17:44.207Z,77.50
2018-09-26T14:20:13.024Z,72.60
2018-09-26T14:22:41.742Z,68.50
2018-09-26T14:25:11.577Z,68.20
2018-09-26T14:27:40.442Z,61.60
2018-09-26T14:47:31.936Z,53.60
2018-09-26T14:50:00.446Z,55.80
2018-09-26T14:52:28.975Z,53.60
2018-09-26T14:54:57.591Z,51.50
2018-09-26T14:57:26.340Z,52.90
2018-09-26T14:59:54.889Z,52.90
2018-09-26T15:02:23.659Z,52.90
2018-09-26T15:04:58.904Z,52.80
2018-09-26T15:07:28.287Z,52.20
2018-09-26T15:09:56.728Z,54.40
2018-09-26T15:12:25.363Z,52.10
2018-09-26T15:14:54.764Z,52.20
2018-09-26T15:17:23.169Z,52.10
2018-09-26T15:19:51.626Z,51.90
2018-09-26T15:22:20.977Z,50.70
2018-09-26T15:42:18.021Z,52.20
2018-09-26T15:44:47.877Z,51.50
2018-09-26T15:47:16.393Z,53.90
2018-09-26T15:49:44.958Z,52.70
2018-09-26T15:52:13.604Z,54.00
2018-09-26T15:54:41.990Z,53.90
2018-09-26T15:57:10.470Z,55.50
2018-09-26T15:59:39.177Z,56.90
2018-09-26T16:02:07.673Z,58.60
2018-09-26T16:21:57.467Z,78.40
2018-09-26T16:24:25.985Z,84.00
2018-09-26T16:26:55.255Z,85.00
2018-09-26T16:29:24.074Z,90.00
2018-09-26T16:31:53.996Z,91.30
2018-09-26T16:51:44.330Z,99.90
2018-09-26T16:54:12.896Z,99.90
2018-09-26T16:56:41.875Z,99.90
2018-09-26T16:59:10.985Z,99.90
2018-09-26T17:01:40.064Z,99.90
2018-09-26T17:04:08.583Z,99.90
2018-09-26T17:06:37.626Z,99.90
2018-09-26T17:26:27.703Z,99.90
2018-09-26T17:28:56.623Z,99.90
2018-09-26T17:31:25.112Z,99.90
2018-09-26T17:33:53.706Z,99.90
2018-09-26T17:36:22.576Z,99.90
2018-09-26T17:38:51.038Z,99.90
2018-09-26T17:41:19.634Z,99.90
2018-09-26T17:43:48.066Z,99.90
2018-09-26T17:46:16.487Z,99.90
2018-09-26T17:48:44.961Z,99.90
2018-09-26T17:51:14.022Z,99.90
2018-09-26T17:53:42.489Z,99.90
2018-09-26T17:56:11.653Z,99.90
2018-09-26T17:58:41.096Z,99.90
2018-09-26T18:18:31.977Z,99.90
2018-09-26T18:21:01.035Z,99.90
2018-09-26T18:23:29.514Z,99.90
2018-09-26T18:25:58.032Z,99.90
2018-09-26T18:28:26.855Z,99.90
2018-09-26T18:30:55.958Z,99.90
2018-09-26T18:33:24.421Z,99.90
2018-09-26T18:35:52.889Z,99.90
2018-09-26T18:38:21.642Z,99.90
2018-09-26T18:40:50.564Z,99.90
2018-09-26T18:43:20.574Z,99.90
2018-09-26T18:45:50.103Z,99.90
2018-09-26T18:48:18.584Z,99.90
2018-09-26T18:50:47.154Z,99.90
2018-09-26T18:53:16.540Z,99.90
2018-09-26T19:13:06.388Z,99.90
2018-09-26T19:15:34.886Z,99.90
2018-09-26T19:18:03.450Z,99.90
2018-09-26T19:37:53.491Z,99.90
2018-09-26T19:40:22.181Z,99.90
2018-09-26T19:42:50.714Z,99.90
2018-09-26T19:45:19.559Z,99.90
2018-09-26T19:47:48.630Z,99.90
2018-09-26T19:50:18.250Z,99.90
2018-09-26T20:10:08.475Z,99.90
2018-09-26T20:12:36.964Z,99.90
2018-09-26T20:15:07.242Z,99.90
2018-09-26T20:17:35.754Z,99.90
2018-09-26T20:20:04.272Z,99.90
2018-09-26T20:39:53.984Z,99.90
2018-09-26T20:59:44.479Z,99.90
2018-09-26T21:02:13.873Z,99.90
2018-09-26T21:04:42.362Z,99.90
2018-09-26T21:24:32.130Z,99.90
2018-09-26T21:27:01.446Z,99.90
2018-09-26T21:29:29.890Z,99.90
2018-09-26T21:49:20.841Z,99.90
2018-09-26T21:51:49.381Z,99.90
2018-09-26T21:54:18.831Z,99.90
2018-09-26T21:56:47.524Z,99.90
2018-09-26T21:59:16.783Z,99.90
2018-09-26T22:19:06.269Z,99.90
2018-09-26T22:21:35.667Z,99.90
2018-09-26T22:24:04.225Z,99.90
2018-09-26T22:26:33.102Z,99.90
2018-09-26T22:29:01.600Z,99.90
2018-09-26T22:31:30.089Z,99.90
2018-09-26T22:33:58.762Z,99.90
2018-09-26T22:36:27.304Z,99.90
2018-09-26T22:38:55.836Z,99.90
2018-09-26T22:41:24.556Z,99.90
2018-09-26T22:43:53.220Z,99.90
2018-09-26T22:46:21.790Z,99.90
2018-09-26T22:48:50.573Z,99.90
2018-09-26T22:51:19.123Z,99.90
2018-09-26T22:53:48.411Z,99.90
2018-09-26T22:56:17.193Z,99.90
2018-09-26T22:58:46.886Z,99.90
2018-09-26T23:01:17.475Z,99.90
2018-09-26T23:03:46.134Z,99.90
2018-09-26T23:06:14.671Z,99.90
2018-09-26T23:08:43.212Z,99.90
2018-09-26T23:11:12.503Z,99.90
2018-09-26T23:13:41.000Z,99.90
2018-09-26T23:16:09.523Z,99.90
2018-09-26T23:18:38.225Z,99.90
2018-09-26T23:21:07.612Z,99.90
2018-09-26T23:23:36.800Z,99.90
2018-09-26T23:26:05.670Z,99.90
2018-09-26T23:28:35.101Z,99.90
2018-09-26T23:31:03.805Z,99.90
2018-09-26T23:33:32.918Z,99.90
2018-09-26T23:36:01.368Z,99.90
2018-09-26T23:38:29.918Z,99.90
2018-09-26T23:40:58.427Z,99.90
